Flight Track Log - Related Links

Times and Time Zones

All times are in EDT time to prevent confusion due to time zone crossing. See the ASQ5740 flight status page for this flight to view local times or setup timezone preferences in your user account.

Time Position Orientation Groundspeed Altitude Reporting Facility
EDT Latitude Longitude Course Direction KTS MPH feet Rate Location/Type
Fri 12:36:09 PM 39.0000 -77.4500 90° East 224 258 2,900  Level Potomac TRACON
Fri 12:37:09 PM 39.0833 -77.4500 360° North 262 302 6,800 3,300 Climbing Potomac TRACON
Fri 12:38:00 PM 39.0167 -76.9784 90° East  Level FlightAware Approximate
Fri 12:38:09 PM 39.1333 -77.3833 46° Northeast 287 330 9,500  Level Potomac TRACON
Fri 12:39:00 PM 39.0390 -76.8606 72° East  Level FlightAware Approximate
Fri 12:40:00 PM 39.0523 -76.7408 72° East  Level FlightAware Approximate
Fri 12:40:29 PM 39.1183 -77.1139 94° East 346 398 12,800  Level Washington Center
Fri 12:41:00 PM 39.0833 -76.6257 90° East  Level FlightAware Approximate
Fri 12:41:29 PM 39.1242 -76.9750 87° East 372 428 14,100  Level Washington Center
Fri 12:42:30 PM 39.1258 -76.8303 89° East 386 444 15,300 1,377 Climbing Washington Center
Fri 12:43:31 PM 39.1356 -76.6833 85° East 398 458 16,900 1,361 Climbing Washington Center
Fri 12:44:29 PM 39.1389 -76.5389 88° East 404 465 18,000 1,271 Climbing Washington Center
Fri 12:45:29 PM 39.1419 -76.3917 88° East 404 465 19,400 1,438 Climbing Washington Center
Fri 12:46:30 PM 39.1450 -76.2419 88° East 409 471 20,900 1,328 Climbing Washington Center
Fri 12:47:31 PM 39.1686 -76.0894 79° East 420 483 22,100 1,041 Climbing Washington Center
Fri 12:48:31 PM 39.1858 -75.9344 82° East 428 493 23,000 450 Climbing Washington Center
Fri 12:49:31 PM 39.2508 -75.8061 57° Northeast 417 480 23,000 101 Level Washington Center
Fri 12:50:30 PM 39.3425 -75.6908 44° Northeast 427 491 23,200 900 Climbing Washington Center
Fri 12:51:31 PM 39.4303 -75.5756 45° Northeast 432 497 24,800 1,388 Climbing Washington Center
Fri 12:52:31 PM 39.5133 -75.4678 45° Northeast 432 497 26,000 790 Climbing Washington Center
Fri 12:54:18 PM 39.6561 -75.2819 45° Northeast 445 512 27,000 361 Climbing New York Center
Fri 12:55:17 PM 39.7400 -75.1633 47° Northeast 440 506 27,000  Level New York Center
Fri 12:56:18 PM 39.8192 -75.0467 49° Northeast 435 501 27,000  Level New York Center
Fri 12:57:18 PM 39.9006 -74.9325 47° Northeast 430 495 27,000  Level New York Center
Fri 12:58:16 PM 39.9839 -74.8128 48° Northeast 430 495 27,000  Level New York Center
Fri 12:59:16 PM 40.0692 -74.6903 48° Northeast 425 489 27,000  Level New York Center
Fri 01:00:18 PM 40.1481 -74.5753 48° Northeast 425 489 27,000  Level New York Center
Fri 01:01:18 PM 40.2308 -74.4656 45° Northeast 425 489 27,000  Level New York Center
Fri 01:02:16 PM 40.3269 -74.3864 32° Northeast 409 471 27,000  Level New York Center
Fri 01:03:17 PM 40.4272 -74.3100 30° Northeast 409 471 27,000  Level New York Center
Fri 01:04:16 PM 40.5256 -74.2275 33° Northeast 409 471 27,000  Level New York Center
Fri 01:05:17 PM 40.6150 -74.1583 30° Northeast 415 478 27,000  Level New York Center
Fri 01:07:04 PM 40.7931 -74.0164 31° Northeast 421 484 27,000  Level Boston Center
Fri 01:08:04 PM 40.8939 -73.9447 28° Northeast 414 476 27,000  Level Boston Center
Fri 01:09:04 PM 41.0044 -73.9364 North 387 445 27,000  Level Boston Center
Fri 01:10:04 PM 41.1256 -73.9253 North 387 445 27,000  Level Boston Center
Fri 01:11:04 PM 41.2383 -73.9058 North 393 452 27,000  Level Boston Center
Fri 01:12:04 PM 41.3492 -73.8808 10° North 398 458 27,000 -650 Level Boston Center
Fri 01:13:04 PM 41.4642 -73.8528 10° North 403 464 25,700 -1,000 Descending Boston Center
Fri 01:14:04 PM 41.5853 -73.8278 North 421 484 25,000 -350 Descending Boston Center
Fri 01:15:04 PM 41.7044 -73.7997 10° North 431 496 25,000  Level Boston Center
Fri 01:16:04 PM 41.8025 -73.7825 North 412 474 25,000  Level Boston Center
Fri 01:17:04 PM 41.9156 -73.7569 10° North 412 474 25,000  Level Boston Center
Fri 01:18:04 PM 42.0389 -73.7286 10° North 407 468 25,000  Level Boston Center
Fri 01:19:04 PM 42.1517 -73.6975 12° North 407 468 25,000  Level Boston Center
Fri 01:20:04 PM 42.2644 -73.6689 11° North 413 475 25,000  Level Boston Center
Fri 01:21:04 PM 42.3753 -73.6514 North 407 468 25,000  Level Boston Center
Fri 01:22:04 PM 42.4817 -73.6281 North 396 456 25,000  Level Boston Center
Fri 01:23:04 PM 42.5903 -73.6047 North 391 450 25,000  Level Boston Center
Fri 01:25:04 PM 42.7992 -73.5550 10° North 386 444 25,000  Level Boston Center
Fri 01:26:04 PM 42.8994 -73.5314 10° North 386 444 25,000 -500 Level Boston Center
Fri 01:27:04 PM 43.0081 -73.5019 11° North 380 437 24,000 -500 Descending Boston Center
Fri 01:28:04 PM 43.1167 -73.4753 10° North 385 443 24,000  Level Boston Center
Fri 01:29:04 PM 43.2150 -73.4514 10° North 391 450 24,000  Level Boston Center
Fri 01:30:04 PM 43.3214 -73.4275 North 391 450 24,000  Level Boston Center
Fri 01:31:04 PM 43.4258 -73.4006 11° North 391 450 24,000 -950 Level Boston Center
Fri 01:32:04 PM 43.5386 -73.3767 North 391 450 22,100 -1,950 Descending Boston Center
Fri 01:33:04 PM 43.6514 -73.3353 15° North 401 461 20,100 -2,100 Descending Boston Center
Fri 01:34:04 PM 43.7603 -73.2681 24° Northeast 401 461 17,900 -1,800 Descending Boston Center
Fri 01:35:04 PM 43.8503 -73.2144 23° Northeast 365 420 16,500 -1,750 Descending Boston Center
Fri 01:36:04 PM 43.9319 -73.1667 23° Northeast 332 382 14,400 -2,500 Descending Boston Center
Fri 01:37:04 PM 44.0133 -73.1444 11° North 302 348 11,500 -3,000 Descending Boston Center
Fri 01:38:04 PM 44.0925 -73.1281 North 295 339 8,400 -2,750 Descending Boston Center
Fri 01:39:04 PM 44.1636 -73.1144 North 295 339 6,000 -2,050 Descending Boston Center
Fri 01:40:04 PM 44.2364 -73.1008 North 273 314 4,300 -1,000 Descending Boston Center
Fri 01:41:04 PM 44.2992 -73.0897 North 241 277 4,000 -350 Descending Boston Center
Fri 01:42:04 PM 44.3533 -73.0672 17° North 207 238 3,600 -600 Descending Boston Center
Fri 01:43:04 PM 44.4014 -73.0472 17° North 181 208 2,800 -800 Descending Boston Center

Login

Don't have an account? Register now (free) for customized features, flight alerts, and more!